Time;durP1;ratioP1;P1;durP2;ratioP2;P2;SDS_P1;SDS_P2;PMS_P1;PMS_P2;Temp;Humidity;BMP_temperature;BMP_pressure;BME280_temperature;BME280_humidity;BME280_pressure;Samples;Min_cycle;Max_cycle;Signal;HPM_P1;HPM_P2
2023/08/23 00:00:42;;;;;;;5.30;2.90;;;16.10;99.90;;;;;;5111689;27;20500;-57
2023/08/23 00:03:08;;;;;;;3.50;3.05;;;16.00;99.90;;;;;;5126587;27;20503;-61
2023/08/23 00:05:34;;;;;;;3.95;2.83;;;15.90;99.90;;;;;;5104918;27;20055;-60
2023/08/23 00:07:59;;;;;;;4.07;3.22;;;15.90;99.90;;;;;;5126944;27;20644;-57
2023/08/23 00:10:25;;;;;;;4.43;3.83;;;15.90;99.90;;;;;;5124182;27;20602;-61
2023/08/23 00:12:53;;;;;;;4.50;3.70;;;16.00;99.90;;;;;;5132313;27;20097;-60
2023/08/23 00:15:19;;;;;;;4.40;3.30;;;16.00;99.90;;;;;;5128829;27;20522;-60
2023/08/23 00:17:45;;;;;;;5.47;3.95;;;16.00;99.90;;;;;;5129904;27;20096;-59
2023/08/23 00:20:11;;;;;;;3.40;3.10;;;15.90;99.90;;;;;;5129888;27;20111;-58
2023/08/23 00:22:37;;;;;;;4.43;2.78;;;15.90;99.90;;;;;;5127661;27;20059;-57
2023/08/23 00:25:03;;;;;;;4.10;2.67;;;15.90;99.90;;;;;;5113459;27;20058;-62
2023/08/23 00:27:28;;;;;;;3.42;3.13;;;15.80;99.90;;;;;;5129438;27;20582;-62
2023/08/23 00:29:54;;;;;;;3.65;3.25;;;15.80;99.90;;;;;;5128627;27;20055;-60
2023/08/23 00:32:20;;;;;;;3.47;3.15;;;15.80;99.90;;;;;;5129549;27;20453;-61
2023/08/23 00:34:45;;;;;;;4.03;3.28;;;15.80;99.90;;;;;;5129850;27;20535;-62
2023/08/23 00:37:11;;;;;;;2.63;2.42;;;15.70;99.90;;;;;;5132335;27;21269;-60
2023/08/23 00:39:37;;;;;;;5.18;2.67;;;15.50;99.90;;;;;;5127057;27;20138;-58
2023/08/23 00:42:03;;;;;;;3.65;2.75;;;15.40;99.90;;;;;;5131013;27;20089;-57
2023/08/23 00:44:28;;;;;;;5.93;2.75;;;15.40;99.90;;;;;;5124795;27;20767;-58
2023/08/23 00:46:54;;;;;;;7.05;3.63;;;15.30;99.90;;;;;;5124526;27;20058;-60
2023/08/23 00:49:21;;;;;;;4.80;3.60;;;15.10;99.90;;;;;;5111210;27;21939;-57
2023/08/23 00:51:51;;;;;;;3.53;3.22;;;15.00;99.90;;;;;;5126263;27;20128;-60
2023/08/23 00:54:17;;;;;;;3.88;3.35;;;15.00;99.90;;;;;;5110094;27;20062;-62
2023/08/23 00:56:43;;;;;;;3.13;2.78;;;15.00;99.90;;;;;;5127109;27;20054;-58
2023/08/23 00:59:09;;;;;;;3.25;2.95;;;15.10;99.90;;;;;;5130230;27;20070;-61
2023/08/23 01:01:35;;;;;;;3.78;2.95;;;15.10;99.90;;;;;;5134064;27;20254;-59
2023/08/23 01:04:01;;;;;;;4.07;2.53;;;15.10;99.90;;;;;;5109063;27;20500;-60
2023/08/23 01:09:21;;;;;;;3.53;2.47;;;15.10;99.90;;;;;;5126946;27;20058;-58
2023/08/23 01:14:43;;;;;;;2.10;1.98;;;15.00;99.90;;;;;;5125057;27;20061;-61
2023/08/23 01:17:12;;;;;;;2.42;2.15;;;15.00;99.90;;;;;;5126732;27;20076;-60
2023/08/23 01:19:43;;;;;;;2.25;2.05;;;15.00;99.90;;;;;;5124561;27;20062;-61
2023/08/23 01:22:12;;;;;;;3.28;2.97;;;13.50;99.90;;;;;;5129601;27;20070;-61
2023/08/23 01:24:38;;;;;;;3.80;2.55;;;14.90;99.90;;;;;;5107915;27;20051;-61
2023/08/23 01:27:04;;;;;;;4.55;2.13;;;14.90;99.90;;;;;;5130328;27;20420;-61
2023/08/23 01:29:30;;;;;;;2.47;2.13;;;14.80;99.90;;;;;;5127705;27;20047;-58
2023/08/23 01:32:20;;;;;;;6.72;2.88;;;14.90;99.90;;;;;;5127371;27;20051;-60
2023/08/23 01:34:51;;;;;;;2.25;2.05;;;14.80;99.90;;;;;;5109490;27;20051;-57
2023/08/23 01:37:19;;;;;;;2.55;2.22;;;14.80;99.90;;;;;;5112094;27;20070;-62
2023/08/23 01:39:46;;;;;;;2.33;2.13;;;14.70;99.90;;;;;;5129937;27;20124;-59
2023/08/23 01:42:11;;;;;;;2.00;1.80;;;14.70;99.90;;;;;;5126604;27;20148;-61
2023/08/23 01:44:41;;;;;;;2.47;2.28;;;14.70;99.90;;;;;;5110966;27;20137;-61
2023/08/23 01:47:07;;;;;;;1.50;1.25;;;14.70;99.90;;;;;;5124004;27;20070;-61
2023/08/23 01:49:32;;;;;;;0.93;0.90;;;14.60;99.90;;;;;;5131005;27;20077;-57
2023/08/23 01:51:58;;;;;;;1.70;1.20;;;14.60;99.90;;;;;;5126636;27;20134;-56
2023/08/23 01:54:24;;;;;;;7.13;2.50;;;14.60;99.90;;;;;;5127961;27;20162;-58
2023/08/23 01:56:53;;;;;;;4.85;2.83;;;14.60;99.90;;;;;;5129050;27;20070;-57
2023/08/23 01:59:18;;;;;;;3.92;3.50;;;14.70;99.90;;;;;;5124258;27;20697;-56
2023/08/23 02:01:44;;;;;;;9.57;5.13;;;14.70;99.90;;;;;;5118594;27;20472;-57
2023/08/23 02:04:10;;;;;;;7.53;4.22;;;14.40;99.90;;;;;;5124304;27;20071;-58
2023/08/23 02:06:35;;;;;;;4.95;4.38;;;14.20;99.90;;;;;;5129377;27;20051;-58
2023/08/23 02:09:01;;;;;;;5.00;3.83;;;14.10;99.90;;;;;;5124343;27;20107;-57
2023/08/23 02:11:27;;;;;;;5.72;4.00;;;14.00;99.90;;;;;;5090434;27;1099430;-57
2023/08/23 02:13:53;;;;;;;4.43;3.53;;;13.90;99.90;;;;;;5126675;27;20074;-56
2023/08/23 02:16:18;;;;;;;5.78;3.67;;;13.90;99.90;;;;;;5134458;27;20047;-61
2023/08/23 02:18:44;;;;;;;3.95;3.55;;;14.00;99.90;;;;;;5109872;27;20774;-58
2023/08/23 02:21:10;;;;;;;4.78;3.85;;;14.00;99.90;;;;;;5125908;27;20147;-57
2023/08/23 02:23:35;;;;;;;4.35;3.92;;;14.10;99.90;;;;;;5129753;27;20568;-57
2023/08/23 02:26:01;;;;;;;5.05;3.63;;;14.10;99.90;;;;;;5123737;27;20565;-57
2023/08/23 02:28:27;;;;;;;3.75;3.22;;;14.20;99.90;;;;;;5133187;27;20514;-57
2023/08/23 02:30:52;;;;;;;3.47;3.08;;;14.20;99.90;;;;;;5126854;27;20051;-55
2023/08/23 02:33:18;;;;;;;3.42;3.10;;;14.30;99.90;;;;;;5126181;27;20089;-57
2023/08/23 02:35:44;;;;;;;9.60;4.05;;;14.30;99.90;;;;;;5127944;27;20047;-56
2023/08/23 02:38:10;;;;;;;3.15;2.85;;;14.40;99.90;;;;;;5128530;27;20058;-57
2023/08/23 02:40:41;;;;;;;3.58;3.17;;;14.40;99.90;;;;;;5129980;27;20510;-57
2023/08/23 02:43:07;;;;;;;4.32;3.90;;;14.50;99.90;;;;;;5105301;27;20062;-57
2023/08/23 02:45:32;;;;;;;3.33;3.05;;;14.50;99.90;;;;;;5130028;27;20051;-58
2023/08/23 02:47:58;;;;;;;3.90;3.53;;;14.50;99.90;;;;;;5125426;27;20066;-57
2023/08/23 02:50:24;;;;;;;4.20;3.05;;;14.60;99.90;;;;;;5130388;27;20050;-57
2023/08/23 02:52:53;;;;;;;4.05;3.65;;;14.60;99.90;;;;;;5127795;27;20059;-57
2023/08/23 02:55:18;;;;;;;24.77;3.55;;;14.70;99.90;;;;;;5106778;27;20129;-56
2023/08/23 02:57:44;;;;;;;3.28;2.88;;;14.60;99.90;;;;;;5129152;27;20215;-57
2023/08/23 03:00:10;;;;;;;2.53;2.30;;;14.60;99.90;;;;;;5130705;27;20089;-57
2023/08/23 03:02:36;;;;;;;3.05;2.75;;;14.60;99.90;;;;;;5126815;27;20070;-57
2023/08/23 03:05:02;;;;;;;29.92;3.65;;;14.70;99.90;;;;;;5125498;27;20055;-57
2023/08/23 03:07:28;;;;;;;17.55;3.30;;;14.60;99.90;;;;;;5127062;27;20082;-57
2023/08/23 03:09:53;;;;;;;4.28;2.47;;;14.60;99.90;;;;;;5126981;27;20086;-58
2023/08/23 03:12:19;;;;;;;3.13;2.63;;;14.60;99.90;;;;;;5126917;27;20058;-60
2023/08/23 03:14:45;;;;;;;40.17;3.85;;;14.50;99.90;;;;;;5110198;27;20504;-57
2023/08/23 03:17:10;;;;;;;7.50;2.95;;;14.50;99.90;;;;;;5123160;27;20304;-57
2023/08/23 03:19:36;;;;;;;5.63;1.88;;;14.50;99.90;;;;;;5128981;27;20055;-58
2023/08/23 03:22:02;;;;;;;2.30;2.10;;;14.40;99.90;;;;;;5104134;27;20073;-59
2023/08/23 03:24:28;;;;;;;2.40;2.20;;;14.40;99.90;;;;;;5128683;27;20075;-57
2023/08/23 03:26:53;;;;;;;2.10;1.95;;;14.40;99.90;;;;;;5124788;27;20499;-56
2023/08/23 03:29:19;;;;;;;2.53;2.33;;;14.50;99.90;;;;;;5134448;27;20099;-57
2023/08/23 03:31:45;;;;;;;9.57;2.35;;;14.50;99.90;;;;;;5127677;27;20070;-56
2023/08/23 03:34:10;;;;;;;2.28;2.08;;;14.50;99.90;;;;;;5125720;27;20464;-57
2023/08/23 03:36:36;;;;;;;2.40;2.20;;;14.50;99.90;;;;;;5130658;27;20078;-57
2023/08/23 03:39:03;;;;;;;8.20;2.83;;;14.50;99.90;;;;;;5123053;27;20142;-57
2023/08/23 03:41:28;;;;;;;15.88;3.30;;;14.50;99.90;;;;;;5129491;27;20050;-56
2023/08/23 03:43:54;;;;;;;3.05;2.10;;;14.50;99.90;;;;;;5125657;27;20051;-56
2023/08/23 03:46:24;;;;;;;32.03;3.67;;;14.50;99.90;;;;;;5131894;27;20062;-56
2023/08/23 03:48:51;;;;;;;12.60;2.65;;;14.50;99.90;;;;;;5126970;27;20050;-57
2023/08/23 03:51:17;;;;;;;10.63;2.50;;;14.50;99.90;;;;;;5112948;27;20074;-58
2023/08/23 03:53:43;;;;;;;1.73;1.63;;;14.40;99.90;;;;;;5128545;27;20146;-60
2023/08/23 03:56:09;;;;;;;2.28;2.08;;;14.40;99.90;;;;;;5123717;27;20082;-57
2023/08/23 03:58:35;;;;;;;1.85;1.75;;;14.40;99.90;;;;;;5126189;27;20054;-57
2023/08/23 04:01:00;;;;;;;2.13;1.73;;;14.50;99.90;;;;;;5128458;27;20055;-58
2023/08/23 04:03:26;;;;;;;2.05;1.85;;;14.50;99.90;;;;;;5104710;27;20047;-57
2023/08/23 04:05:52;;;;;;;4.35;1.92;;;14.50;99.90;;;;;;5127884;27;20051;-57
2023/08/23 04:08:17;;;;;;;1.98;1.88;;;14.50;99.90;;;;;;5078668;28;21087;-57
2023/08/23 04:10:51;;;;;;;3.35;2.35;;;14.60;99.90;;;;;;5111409;27;20123;-57
2023/08/23 04:13:17;;;;;;;;;;;14.50;99.90;;;;;;5109613;27;20146;-57
2023/08/23 04:15:44;;;;;;;2.58;1.70;;;14.50;99.90;;;;;;5125652;27;20012;-56
2023/08/23 04:18:09;;;;;;;2.63;2.35;;;14.50;99.90;;;;;;5125370;27;20087;-56
2023/08/23 04:20:37;;;;;;;4.45;2.50;;;14.50;99.90;;;;;;5125843;27;20138;-57
2023/08/23 04:23:03;;;;;;;2.38;2.17;;;14.50;99.90;;;;;;5107048;27;20047;-56
2023/08/23 04:25:29;;;;;;;3.50;2.65;;;14.60;99.90;;;;;;5122671;27;20193;-57
2023/08/23 04:27:54;;;;;;;2.90;2.65;;;14.60;99.90;;;;;;5109377;27;20137;-56
2023/08/23 04:30:20;;;;;;;5.35;2.78;;;14.60;99.90;;;;;;5123143;27;20059;-57
2023/08/23 04:32:46;;;;;;;3.20;2.90;;;14.50;99.90;;;;;;5106801;27;20100;-57
2023/08/23 04:35:11;;;;;;;3.30;3.00;;;14.60;99.90;;;;;;5124885;27;20820;-56
2023/08/23 04:37:37;;;;;;;3.20;2.80;;;14.60;99.90;;;;;;5125688;27;20119;-56
2023/08/23 04:40:04;;;;;;;3.03;2.78;;;14.70;99.90;;;;;;5108187;27;20059;-58
2023/08/23 04:42:34;;;;;;;3.75;3.40;;;14.60;99.90;;;;;;5123595;27;20489;-61
2023/08/23 04:45:00;;;;;;;3.38;3.08;;;14.70;99.90;;;;;;5126658;27;20090;-57
2023/08/23 04:47:30;;;;;;;4.25;3.10;;;14.70;99.90;;;;;;5123617;27;20066;-57
2023/08/23 04:49:56;;;;;;;4.38;3.60;;;14.70;99.90;;;;;;5126696;27;20059;-58
2023/08/23 04:52:22;;;;;;;4.13;3.83;;;14.70;99.90;;;;;;5123850;27;20058;-56
2023/08/23 04:57:17;;;;;;;4.38;3.53;;;14.80;99.90;;;;;;5125733;27;20086;-58
2023/08/23 04:59:42;;;;;;;4.40;3.83;;;14.90;99.90;;;;;;5108107;27;20592;-57
2023/08/23 05:02:09;;;;;;;5.05;4.43;;;14.90;99.90;;;;;;5130281;27;20710;-56
2023/08/23 05:04:34;;;;;;;5.57;3.90;;;15.00;99.90;;;;;;5127604;27;20055;-56
2023/08/23 05:07:00;;;;;;;6.80;4.53;;;15.00;99.90;;;;;;5128070;27;20054;-57
2023/08/23 05:09:28;;;;;;;5.68;4.20;;;15.00;99.90;;;;;;5129885;27;20071;-57
2023/08/23 05:11:54;;;;;;;4.72;4.32;;;15.10;99.90;;;;;;5125297;27;20062;-59
2023/08/23 05:14:20;;;;;;;5.50;4.95;;;15.10;99.90;;;;;;5131544;27;20058;-56
2023/08/23 05:16:45;;;;;;;5.45;4.88;;;15.10;99.90;;;;;;5127340;27;20059;-57
2023/08/23 05:19:11;;;;;;;6.30;4.80;;;15.10;99.90;;;;;;5129058;27;20175;-56
2023/08/23 05:21:37;;;;;;;5.85;5.22;;;15.20;99.90;;;;;;5109648;27;20079;-57
2023/08/23 05:24:02;;;;;;;5.20;4.50;;;15.20;99.90;;;;;;5128229;27;20058;-56
2023/08/23 05:26:28;;;;;;;5.35;4.78;;;15.20;99.90;;;;;;5128874;27;20043;-56
2023/08/23 05:28:54;;;;;;;6.30;5.20;;;15.30;99.90;;;;;;5125127;27;20493;-55
2023/08/23 05:31:19;;;;;;;8.55;5.47;;;15.50;99.90;;;;;;5132048;27;20827;-57
2023/08/23 05:33:45;;;;;;;5.90;5.30;;;15.60;99.90;;;;;;5126764;27;21002;-58
2023/08/23 05:36:11;;;;;;;9.15;5.88;;;15.70;99.90;;;;;;5107957;27;20044;-58
2023/08/23 05:38:37;;;;;;;6.30;5.47;;;15.90;99.90;;;;;;5131796;27;20087;-60
2023/08/23 05:41:02;;;;;;;8.82;5.55;;;16.00;99.90;;;;;;5105812;27;20824;-57
2023/08/23 05:43:28;;;;;;;6.20;5.60;;;16.10;99.90;;;;;;5130452;27;20074;-61
2023/08/23 05:45:56;;;;;;;6.70;5.68;;;16.10;99.90;;;;;;5106175;27;20055;-59
2023/08/23 05:48:22;;;;;;;5.82;5.22;;;16.10;99.90;;;;;;5129731;27;20062;-60
2023/08/23 05:50:51;;;;;;;7.40;5.60;;;16.10;99.90;;;;;;5127627;27;20085;-57
2023/08/23 05:53:20;;;;;;;5.90;5.10;;;16.20;99.90;;;;;;5117628;27;20404;-57
2023/08/23 05:55:48;;;;;;;6.45;5.57;;;16.20;99.90;;;;;;5128669;27;20134;-57
2023/08/23 05:58:18;;;;;;;8.05;6.00;;;16.20;99.90;;;;;;5124470;27;20476;-60
2023/08/23 06:00:45;;;;;;;6.03;5.43;;;16.20;99.90;;;;;;5133023;27;20425;-56
2023/08/23 06:03:14;;;;;;;7.88;5.90;;;16.30;99.90;;;;;;5125542;27;20459;-57
2023/08/23 06:05:41;;;;;;;6.72;6.03;;;16.50;99.90;;;;;;5128275;27;20111;-56
2023/08/23 06:08:07;;;;;;;5.75;5.20;;;16.70;99.90;;;;;;5127506;27;20527;-57
2023/08/23 06:10:32;;;;;;;6.38;5.65;;;16.70;99.90;;;;;;5123951;27;20821;-57
2023/08/23 06:12:58;;;;;;;7.78;6.07;;;16.80;99.90;;;;;;5110247;27;20112;-56
2023/08/23 06:15:24;;;;;;;8.85;6.70;;;16.80;99.90;;;;;;5125905;27;20078;-57
2023/08/23 06:17:53;;;;;;;7.90;6.25;;;17.10;99.90;;;;;;5130554;27;20063;-57
2023/08/23 06:20:19;;;;;;;9.90;7.18;;;17.20;99.90;;;;;;5107352;27;20138;-58
2023/08/23 06:22:45;;;;;;;9.05;7.00;;;17.60;99.90;;;;;;5108829;27;20055;-60
2023/08/23 06:25:11;;;;;;;7.40;6.70;;;17.90;99.90;;;;;;5092749;27;20118;-59
2023/08/23 06:27:37;;;;;;;6.90;5.80;;;18.10;99.90;;;;;;5071257;28;20060;-60
2023/08/23 06:30:06;;;;;;;8.13;7.35;;;18.10;99.90;;;;;;5087109;27;1105882;-59
2023/08/23 06:32:32;;;;;;;8.63;7.22;;;18.20;99.90;;;;;;5126311;27;20066;-57
2023/08/23 06:34:58;;;;;;;8.43;7.55;;;18.30;99.90;;;;;;5125853;27;20055;-62
2023/08/23 06:37:24;;;;;;;10.85;8.15;;;18.30;99.90;;;;;;5129358;27;20154;-61
2023/08/23 06:39:53;;;;;;;10.05;8.38;;;18.40;99.90;;;;;;5125631;27;20051;-63
2023/08/23 06:42:19;;;;;;;9.48;7.55;;;18.40;99.90;;;;;;5124964;27;20112;-59
2023/08/23 06:44:44;;;;;;;9.95;8.43;;;18.60;99.90;;;;;;5125771;27;20055;-60
2023/08/23 06:47:10;;;;;;;12.35;9.48;;;18.70;99.90;;;;;;5126034;27;20070;-57
2023/08/23 06:49:36;;;;;;;12.43;9.25;;;19.10;99.90;;;;;;5122953;27;20062;-57
2023/08/23 06:52:02;;;;;;;13.48;10.73;;;19.20;99.90;;;;;;5108504;27;20051;-57
2023/08/23 06:54:28;;;;;;;11.43;10.15;;;19.60;99.90;;;;;;5124957;27;20521;-57
2023/08/23 06:56:53;;;;;;;15.57;12.65;;;19.80;99.90;;;;;;5128318;27;20047;-57
2023/08/23 06:59:19;;;;;;;12.98;9.63;;;20.00;99.90;;;;;;5128961;27;20454;-57
2023/08/23 07:01:46;;;;;;;13.73;11.48;;;20.10;99.90;;;;;;5131366;27;20085;-57
2023/08/23 07:04:11;;;;;;;14.68;10.02;;;20.00;99.90;;;;;;5126414;27;20043;-57
2023/08/23 07:06:37;;;;;;;13.98;11.18;;;20.10;99.90;;;;;;5127978;27;20054;-57
2023/08/23 07:09:03;;;;;;;14.85;10.90;;;20.20;99.90;;;;;;5109875;27;20748;-58
2023/08/23 07:11:29;;;;;;;13.73;10.23;;;20.50;99.90;;;;;;5124315;27;20061;-58
2023/08/23 07:13:55;;;;;;;15.07;11.10;;;20.40;99.90;;;;;;5125780;27;20055;-60
2023/08/23 07:16:20;;;;;;;15.40;10.10;;;20.60;99.90;;;;;;5127878;27;20158;-58
2023/08/23 07:18:46;;;;;;;11.98;9.93;;;20.60;99.90;;;;;;5123558;27;20059;-60
2023/08/23 07:21:12;;;;;;;13.20;9.75;;;20.80;99.90;;;;;;5127984;27;20058;-58
2023/08/23 07:23:37;;;;;;;12.57;9.50;;;20.90;99.90;;;;;;5124920;27;20125;-62
2023/08/23 07:26:04;;;;;;;12.82;9.93;;;21.00;99.90;;;;;;5125440;27;20420;-59
2023/08/23 07:28:30;;;;;;;13.18;9.40;;;21.00;99.90;;;;;;5127268;27;20069;-57
2023/08/23 07:30:58;;;;;;;12.88;8.57;;;21.20;99.90;;;;;;5089732;27;20077;-60
2023/08/23 07:33:25;;;;;;;12.48;9.55;;;21.40;99.90;;;;;;5126927;27;20051;-63
2023/08/23 07:35:58;;;;;;;10.52;8.45;;;21.60;99.90;;;;;;5123379;27;20059;-58
2023/08/23 07:38:24;;;;;;;11.43;7.47;;;22.00;99.90;;;;;;5132681;27;20058;-58
2023/08/23 07:40:51;;;;;;;9.77;7.30;;;22.00;99.90;;;;;;5116976;27;20493;-58
2023/08/23 07:43:17;;;;;;;8.73;6.32;;;21.60;99.90;;;;;;5115639;27;20480;-58
2023/08/23 07:45:43;;;;;;;8.68;7.10;;;21.80;99.90;;;;;;5127160;27;20059;-59
2023/08/23 07:48:08;;;;;;;9.90;7.13;;;21.60;99.90;;;;;;5121275;27;20405;-58
2023/08/23 07:50:35;;;;;;;7.22;5.88;;;21.80;99.90;;;;;;5127949;27;20100;-58
2023/08/23 07:53:00;;;;;;;8.38;6.72;;;22.10;99.90;;;;;;5123015;27;20058;-58
2023/08/23 07:55:26;;;;;;;6.82;5.57;;;22.30;99.90;;;;;;5125613;27;20061;-58
2023/08/23 07:57:52;;;;;;;6.93;6.05;;;22.80;99.90;;;;;;5126379;27;20059;-57
2023/08/23 08:00:18;;;;;;;6.53;5.53;;;23.10;99.90;;;;;;5116291;27;20102;-57
2023/08/23 08:02:44;;;;;;;10.32;6.30;;;23.50;99.90;;;;;;5097841;28;20059;-58
2023/08/23 08:05:09;;;;;;;7.07;5.57;;;23.70;99.90;;;;;;5122186;27;20499;-57
2023/08/23 08:07:35;;;;;;;6.40;5.68;;;23.80;99.90;;;;;;5125610;27;20082;-58
2023/08/23 08:10:01;;;;;;;5.18;4.78;;;23.60;99.90;;;;;;5123689;27;20043;-58
2023/08/23 08:12:26;;;;;;;5.70;5.10;;;23.90;99.90;;;;;;5125639;27;20905;-59
2023/08/23 08:14:52;;;;;;;6.22;4.70;;;24.20;99.90;;;;;;5107553;27;20063;-56
2023/08/23 08:17:18;;;;;;;6.32;4.45;;;24.40;99.90;;;;;;5122322;27;20130;-57
2023/08/23 08:19:43;;;;;;;4.53;3.45;;;24.70;99.90;;;;;;5128319;27;20059;-58
2023/08/23 08:22:10;;;;;;;4.78;3.28;;;24.30;99.90;;;;;;5122198;27;20426;-58
2023/08/23 08:24:36;;;;;;;3.75;2.22;;;24.80;99.90;;;;;;5125772;27;20074;-58
2023/08/23 08:27:02;;;;;;;3.28;2.20;;;25.20;99.90;;;;;;5107037;27;20047;-58
2023/08/23 08:29:28;;;;;;;3.58;2.17;;;24.90;99.90;;;;;;5124308;27;20508;-57
2023/08/23 08:31:54;;;;;;;3.30;2.28;;;25.30;99.90;;;;;;5127206;27;20047;-57
2023/08/23 08:34:19;;;;;;;3.00;2.05;;;25.30;99.90;;;;;;5110766;27;20500;-60
2023/08/23 08:36:45;;;;;;;2.65;1.95;;;25.70;99.90;;;;;;5129420;27;20485;-58
2023/08/23 08:39:11;;;;;;;2.70;2.03;;;26.00;99.90;;;;;;5131175;27;21675;-59
2023/08/23 08:41:37;;;;;;;2.30;1.65;;;26.50;99.90;;;;;;5128090;27;20077;-58
2023/08/23 08:44:03;;;;;;;3.10;1.65;;;26.20;99.90;;;;;;5131901;27;20808;-58
2023/08/23 08:46:29;;;;;;;3.75;2.13;;;27.30;99.90;;;;;;5129040;27;20169;-59
2023/08/23 08:48:54;;;;;;;3.47;1.88;;;27.10;99.90;;;;;;5110272;27;20150;-62
2023/08/23 08:51:20;;;;;;;2.03;1.73;;;27.50;99.90;;;;;;5130266;27;20059;-63
2023/08/23 08:56:14;;;;;;;1.42;1.33;;;27.00;99.90;;;;;;5121880;27;20135;-64
2023/08/23 08:58:40;;;;;;;4.13;1.50;;;27.10;99.90;;;;;;5126115;27;20054;-63
2023/08/23 09:01:07;;;;;;;2.40;1.38;;;27.90;99.90;;;;;;5136836;27;20146;-62
2023/08/23 09:03:33;;;;;;;2.75;1.40;;;28.60;99.90;;;;;;5129813;27;20054;-58
2023/08/23 09:05:59;;;;;;;1.60;0.88;;;28.40;99.90;;;;;;5125753;27;20666;-57
2023/08/23 09:08:25;;;;;;;4.45;1.02;;;28.50;99.90;;;;;;5132084;27;20580;-58
2023/08/23 09:10:52;;;;;;;1.10;0.90;;;28.80;99.90;;;;;;5126891;27;20520;-58
2023/08/23 09:13:18;;;;;;;2.45;1.67;;;29.10;99.90;;;;;;5132389;27;20051;-58
2023/08/23 09:15:47;;;;;;;2.00;1.52;;;29.30;99.90;;;;;;5129786;27;20058;-58
2023/08/23 09:18:12;;;;;;;3.22;1.58;;;29.00;99.90;;;;;;5124559;27;20066;-58
2023/08/23 09:20:38;;;;;;;1.88;1.20;;;28.90;99.90;;;;;;5138882;27;20055;-58
2023/08/23 09:23:04;;;;;;;3.08;1.60;;;29.00;99.90;;;;;;5133246;27;20051;-58
2023/08/23 09:25:30;;;;;;;2.13;1.25;;;28.50;99.90;;;;;;5136662;27;20058;-57
2023/08/23 09:27:56;;;;;;;2.40;1.58;;;28.10;99.90;;;;;;5135768;27;20598;-58
2023/08/23 09:30:22;;;;;;;2.88;1.83;;;28.70;99.90;;;;;;5122603;27;20059;-59
2023/08/23 09:32:51;;;;;;;1.45;1.25;;;28.70;99.90;;;;;;5120294;27;20063;-58
2023/08/23 09:35:18;;;;;;;1.55;1.20;;;29.10;99.90;;;;;;5134292;27;20047;-58
2023/08/23 09:37:47;;;;;;;5.47;1.50;;;29.40;99.90;;;;;;5137117;27;20651;-58
2023/08/23 09:40:25;;;;;;;3.08;1.15;;;28.80;99.90;;;;;;5137184;27;21619;-58
2023/08/23 09:42:53;;;;;;;1.55;1.15;;;29.10;99.90;;;;;;5113951;27;20062;-58
2023/08/23 09:45:21;;;;;;;3.00;1.23;;;28.40;99.90;;;;;;5121051;27;20130;-58
2023/08/23 09:50:22;;;;;;;3.42;1.70;;;28.00;99.90;;;;;;5129997;27;20043;-58
2023/08/23 09:52:55;;;;;;;2.05;1.40;;;28.20;99.90;;;;;;5123856;27;20808;-58
2023/08/23 09:55:22;;;;;;;2.58;1.30;;;28.20;99.90;;;;;;5099638;27;20078;-58
2023/08/23 09:57:52;;;;;;;3.10;2.30;;;28.40;99.90;;;;;;5133171;27;20046;-58
2023/08/23 10:00:18;;;;;;;3.42;1.90;;;28.30;99.90;;;;;;5112714;27;20097;-58
2023/08/23 10:02:46;;;;;;;2.63;1.63;;;28.20;99.90;;;;;;5137561;27;20053;-59
2023/08/23 10:05:12;;;;;;;3.33;1.75;;;28.20;99.90;;;;;;5130629;27;20682;-58
2023/08/23 10:07:40;;;;;;;2.60;1.90;;;27.40;99.90;;;;;;5137835;27;20450;-58
2023/08/23 10:10:07;;;;;;;8.25;2.08;;;27.90;99.90;;;;;;5127697;27;20217;-58
2023/08/23 10:12:36;;;;;;;4.45;2.67;;;28.00;99.90;;;;;;5125188;27;20062;-58
2023/08/23 10:15:03;;;;;;;3.67;2.30;;;28.10;99.90;;;;;;5122328;27;20043;-58
2023/08/23 10:17:30;;;;;;;2.97;2.00;;;27.90;99.90;;;;;;5125853;27;20066;-58
2023/08/23 10:19:56;;;;;;;4.35;2.85;;;27.70;99.90;;;;;;5121759;27;20517;-58
2023/08/23 10:22:24;;;;;;;4.25;2.92;;;27.50;99.90;;;;;;5128689;27;20145;-58
2023/08/23 10:24:53;;;;;;;4.93;2.33;;;26.90;99.90;;;;;;5123650;27;20079;-65
2023/08/23 10:27:22;;;;;;;4.75;2.50;;;27.10;99.90;;;;;;5126420;27;20247;-58
2023/08/23 10:29:52;;;;;;;3.20;2.90;;;27.50;99.90;;;;;;5130813;27;20051;-65
2023/08/23 10:32:18;;;;;;;3.92;2.45;;;27.40;99.90;;;;;;5118019;27;20057;-59
2023/08/23 10:34:44;;;;;;;5.20;2.83;;;27.30;99.90;;;;;;5126203;27;20055;-59
2023/08/23 10:37:18;;;;;;;5.72;3.00;;;27.90;99.90;;;;;;5097737;27;20070;-63
2023/08/23 10:42:18;;;;;;;4.60;3.17;;;28.50;99.90;;;;;;5126275;27;20090;-63
2023/08/23 10:49:32;;;;;;;5.03;2.55;;;28.90;99.90;;;;;;5101721;27;20591;-60
2023/08/23 10:51:58;;;;;;;4.43;2.75;;;30.10;99.90;;;;;;5110927;27;20063;-59
2023/08/23 10:54:26;;;;;;;4.93;2.88;;;29.90;99.90;;;;;;5113648;27;20051;-58
2023/08/23 10:56:52;;;;;;;4.35;2.53;;;29.60;99.90;;;;;;5118002;27;20060;-60
2023/08/23 10:59:17;;;;;;;5.40;2.67;;;29.40;99.90;;;;;;5112364;28;20051;-58
2023/08/23 11:01:44;;;;;;;5.82;2.13;;;28.90;99.90;;;;;;5109053;28;20147;-58
2023/08/23 11:04:10;;;;;;;4.15;1.98;;;28.10;99.90;;;;;;5116915;27;20094;-58
2023/08/23 11:06:37;;;;;;;3.65;2.53;;;28.00;99.90;;;;;;5108637;27;20056;-60
2023/08/23 11:09:02;;;;;;;4.70;2.20;;;27.60;99.90;;;;;;5111291;27;20060;-59
2023/08/23 11:11:29;;;;;;;5.82;2.80;;;27.50;99.90;;;;;;5114354;27;20187;-59
2023/08/23 11:13:55;;;;;;;3.75;2.58;;;27.50;99.90;;;;;;5114385;27;20059;-63
2023/08/23 11:16:22;;;;;;;4.88;2.25;;;27.20;99.90;;;;;;5110047;27;20758;-61
2023/08/23 11:18:48;;;;;;;4.72;3.63;;;27.10;99.90;;;;;;5115271;27;20050;-59
2023/08/23 11:21:14;;;;;;;6.82;2.65;;;27.50;99.90;;;;;;5113186;27;20051;-66
2023/08/23 11:23:39;;;;;;;3.90;3.05;;;27.20;99.90;;;;;;5109988;27;20108;-62
2023/08/23 11:26:05;;;;;;;4.45;2.83;;;27.00;99.90;;;;;;5115440;27;20509;-61
2023/08/23 11:28:31;;;;;;;7.47;4.78;;;26.50;99.90;;;;;;5109500;27;20082;-62
2023/08/23 11:33:24;;;;;;;10.25;4.78;;;25.70;99.90;;;;;;5102116;27;20148;-65
2023/08/23 11:35:50;;;;;;;5.38;3.83;;;27.40;99.90;;;;;;5103755;27;20516;-62
2023/08/23 11:38:16;;;;;;;6.32;4.43;;;30.50;99.90;;;;;;5143804;27;20092;-59
2023/08/23 11:40:44;;;;;;;5.93;3.67;;;32.00;99.90;;;;;;5152559;27;20129;-58
2023/08/23 11:43:14;;;;;;;4.20;3.80;;;32.50;99.90;;;;;;5121039;27;20104;-60
2023/08/23 11:45:41;;;;;;;5.03;2.10;;;31.30;99.90;;;;;;5138320;27;20051;-59
2023/08/23 11:48:10;;;;;;;5.80;3.80;;;32.20;99.90;;;;;;5143534;27;20055;-61
2023/08/23 11:50:38;;;;;;;4.68;3.92;;;34.20;99.90;;;;;;5116412;27;20592;-59
2023/08/23 11:53:08;;;;;;;5.88;3.50;;;33.00;99.90;;;;;;5131259;27;20078;-64
2023/08/23 11:55:34;;;;;;;4.88;3.00;;;34.60;99.90;;;;;;5147596;27;20154;-59
2023/08/23 11:58:04;;;;;;;3.33;2.70;;;35.20;99.90;;;;;;5134164;27;20058;-60
2023/08/23 12:00:30;;;;;;;7.28;3.42;;;36.90;99.10;;;;;;5116232;27;20217;-62
2023/08/23 12:02:56;;;;;;;4.88;2.30;;;35.60;99.60;;;;;;5098673;27;20047;-60
2023/08/23 12:05:21;;;;;;;5.15;2.70;;;37.10;99.50;;;;;;5095810;27;20767;-58
2023/08/23 12:07:47;;;;;;;3.58;2.40;;;36.80;98.00;;;;;;5127742;27;20058;-59
2023/08/23 12:10:13;;;;;;;4.50;3.20;;;35.20;99.60;;;;;;5129412;27;20054;-59
2023/08/23 12:12:39;;;;;;;3.58;1.92;;;36.70;97.50;;;;;;5132586;27;20054;-59
2023/08/23 12:15:05;;;;;;;5.68;2.45;;;37.20;97.50;;;;;;5128799;27;20055;-58
2023/08/23 12:17:32;;;;;;;4.10;1.75;;;37.50;96.70;;;;;;5123994;27;20050;-58
2023/08/23 12:20:04;;;;;;;3.42;1.83;;;38.50;96.20;;;;;;5126346;27;20407;-59
2023/08/23 12:22:30;;;;;;;4.28;2.03;;;37.90;95.30;;;;;;5127633;27;20058;-59
2023/08/23 12:24:55;;;;;;;4.18;2.08;;;39.00;94.70;;;;;;5110135;27;20064;-59
2023/08/23 12:27:21;;;;;;;3.05;2.08;;;38.40;93.90;;;;;;5115013;27;20400;-59
2023/08/23 12:29:47;;;;;;;3.80;2.33;;;36.70;94.90;;;;;;5134489;27;20065;-59
2023/08/23 12:32:12;;;;;;;11.60;2.33;;;35.30;95.00;;;;;;5124743;27;20047;-58
2023/08/23 12:34:38;;;;;;;3.88;1.92;;;35.80;96.10;;;;;;5122952;27;20047;-59
2023/08/23 12:37:04;;;;;;;2.90;1.63;;;37.90;95.30;;;;;;5107702;27;20493;-58
2023/08/23 12:39:30;;;;;;;3.75;1.65;;;36.10;93.90;;;;;;5106865;27;20058;-58
2023/08/23 12:41:56;;;;;;;3.20;2.17;;;33.60;96.20;;;;;;5133434;27;20141;-58
2023/08/23 12:44:22;;;;;;;3.47;1.50;;;31.50;97.10;;;;;;5119002;27;20053;-58
2023/08/23 12:46:47;;;;;;;2.75;1.50;;;30.30;98.30;;;;;;5121938;27;20054;-58
2023/08/23 12:49:13;;;;;;;4.35;1.50;;;29.20;99.10;;;;;;5118419;27;20063;-58
2023/08/23 12:51:43;;;;;;;2.92;2.05;;;28.30;99.90;;;;;;5127723;27;20579;-58
2023/08/23 12:54:09;;;;;;;5.82;1.60;;;28.00;99.90;;;;;;5120799;27;20200;-58
2023/08/23 12:56:36;;;;;;;3.92;1.50;;;27.50;99.90;;;;;;5124160;27;20081;-58
2023/08/23 12:59:02;;;;;;;3.75;1.90;;;27.30;99.90;;;;;;5098762;27;20146;-59
2023/08/23 13:01:30;;;;;;;4.70;1.98;;;27.10;99.90;;;;;;5111467;27;20057;-59
2023/08/23 13:03:55;;;;;;;1.98;1.58;;;29.80;99.90;;;;;;5123633;27;20785;-59